Time;durP1;ratioP1;P1;durP2;ratioP2;P2;SDS_P1;SDS_P2;PMS_P1;PMS_P2;Temp;Humidity;BMP_temperature;BMP_pressure;BME280_temperature;BME280_humidity;BME280_pressure;Samples;Min_cycle;Max_cycle;Signal;HPM_P1;HPM_P2
2022/01/07 00:00:16;;;;;;;0.00;0.00;;;3.10;87.60;;;;;;4192839;28;20734;-61
2022/01/07 00:02:39;;;;;;;0.00;0.00;;;3.10;87.30;;;;;;4178709;28;20084;-60
2022/01/07 00:05:04;;;;;;;0.00;0.00;;;3.10;87.10;;;;;;4192886;28;20055;-61
2022/01/07 00:07:26;;;;;;;0.00;0.00;;;2.90;87.20;;;;;;4178954;28;20037;-59
2022/01/07 00:09:49;;;;;;;0.00;0.00;;;2.60;88.00;;;;;;4178881;28;20053;-58
2022/01/07 00:12:11;;;;;;;0.00;0.00;;;2.40;88.70;;;;;;4178430;28;20131;-60
2022/01/07 00:14:34;;;;;;;0.00;0.00;;;2.30;89.20;;;;;;4178868;28;20083;-58
2022/01/07 00:16:56;;;;;;;0.00;0.00;;;2.20;89.70;;;;;;4178613;28;20057;-57
2022/01/07 00:19:19;;;;;;;0.00;0.00;;;2.20;90.00;;;;;;4178647;28;20041;-59
2022/01/07 00:21:42;;;;;;;0.00;0.00;;;2.20;90.20;;;;;;4178561;28;20155;-60
2022/01/07 00:24:04;;;;;;;0.00;0.00;;;2.20;90.40;;;;;;4192713;28;20536;-62
2022/01/07 00:26:27;;;;;;;0.00;0.00;;;2.20;90.50;;;;;;4192460;28;20051;-58
2022/01/07 00:28:49;;;;;;;0.00;0.00;;;2.00;90.70;;;;;;4192497;28;20086;-54
2022/01/07 00:31:12;;;;;;;0.00;0.00;;;2.00;91.00;;;;;;4178025;28;20099;-56
2022/01/07 00:33:35;;;;;;;0.00;0.00;;;1.90;91.10;;;;;;4178482;28;20139;-56
2022/01/07 00:35:59;;;;;;;0.00;0.00;;;2.00;91.10;;;;;;4178355;28;20041;-58
2022/01/07 00:38:21;;;;;;;0.00;0.00;;;2.10;91.00;;;;;;4178649;28;20061;-58
2022/01/07 00:40:44;;;;;;;0.00;0.00;;;2.00;91.00;;;;;;4192102;28;20151;-56
2022/01/07 00:43:06;;;;;;;0.00;0.00;;;2.00;91.10;;;;;;4178595;28;20087;-57
2022/01/07 00:45:29;;;;;;;0.00;0.00;;;2.10;91.10;;;;;;4166028;28;20099;-56
2022/01/07 00:47:54;;;;;;;0.00;0.00;;;2.20;90.90;;;;;;4195682;28;20150;-55
2022/01/07 00:50:20;;;;;;;0.00;0.00;;;2.00;90.90;;;;;;4181666;28;20083;-58
2022/01/07 00:52:43;;;;;;;0.00;0.00;;;2.00;91.10;;;;;;4181937;28;20646;-57
2022/01/07 00:55:06;;;;;;;0.00;0.00;;;2.00;91.10;;;;;;4195530;28;20482;-56
2022/01/07 00:57:29;;;;;;;0.00;0.00;;;1.90;91.20;;;;;;4181464;28;20080;-57
2022/01/07 00:59:51;;;;;;;0.00;0.00;;;1.90;91.30;;;;;;4181502;28;20064;-57
2022/01/07 01:02:14;;;;;;;0.00;0.00;;;1.90;91.40;;;;;;4181458;28;20087;-57
2022/01/07 01:04:38;;;;;;;0.00;0.00;;;1.90;91.40;;;;;;4181413;28;20088;-55
2022/01/07 01:07:00;;;;;;;0.00;0.00;;;1.90;91.50;;;;;;4181411;28;20135;-58
2022/01/07 01:09:22;;;;;;;0.00;0.00;;;1.90;91.50;;;;;;4182452;28;20094;-54
2022/01/07 01:11:46;;;;;;;0.00;0.00;;;2.00;91.60;;;;;;4181035;28;20049;-56
2022/01/07 01:14:29;;;;;;;0.00;0.00;;;2.00;91.50;;;;;;4182317;28;20037;-59
2022/01/07 01:16:55;;;;;;;0.00;0.00;;;2.00;91.50;;;;;;4181151;28;20402;-56
2022/01/07 01:19:18;;;;;;;0.00;0.00;;;2.00;91.60;;;;;;4182340;28;20095;-56
2022/01/07 01:21:49;;;;;;;0.00;0.00;;;2.00;91.60;;;;;;4182156;28;20111;-57
2022/01/07 01:24:23;;;;;;;0.00;0.00;;;2.00;91.70;;;;;;4181197;28;20091;-59
2022/01/07 01:26:48;;;;;;;0.00;0.00;;;1.90;91.90;;;;;;4181079;28;20072;-58
2022/01/07 01:29:10;;;;;;;0.00;0.00;;;1.80;92.00;;;;;;4181019;28;20138;-56
2022/01/07 01:31:35;;;;;;;0.00;0.00;;;1.70;92.20;;;;;;4173981;28;20064;-56
2022/01/07 01:34:00;;;;;;;0.00;0.00;;;1.70;92.30;;;;;;4164701;28;20644;-55
2022/01/07 01:36:40;;;;;;;0.00;0.00;;;1.70;92.30;;;;;;4164357;28;20522;-59
2022/01/07 01:39:05;;;;;;;0.00;0.00;;;1.80;92.30;;;;;;4164462;28;20132;-56
2022/01/07 01:41:39;;;;;;;0.00;0.00;;;1.90;92.20;;;;;;4165273;28;20525;-57
2022/01/07 01:44:01;;;;;;;0.00;0.00;;;1.80;92.20;;;;;;4164369;28;20507;-53
2022/01/07 01:46:24;;;;;;;0.00;0.00;;;1.70;92.30;;;;;;4178281;28;20122;-54
2022/01/07 01:48:47;;;;;;;0.00;0.00;;;1.60;92.30;;;;;;4165300;28;20053;-56
2022/01/07 01:51:15;;;;;;;0.00;0.00;;;1.60;92.50;;;;;;4165100;28;20060;-55
2022/01/07 01:53:44;;;;;;;0.00;0.00;;;1.50;92.60;;;;;;4165259;28;20452;-60
2022/01/07 01:56:07;;;;;;;0.00;0.00;;;1.50;92.70;;;;;;4164030;28;20053;-57
2022/01/07 01:58:30;;;;;;;0.00;0.00;;;1.60;92.70;;;;;;4164225;28;20045;-53
2022/01/07 02:00:53;;;;;;;0.00;0.00;;;1.60;92.60;;;;;;4163781;28;20056;-57
2022/01/07 02:03:18;;;;;;;0.00;0.00;;;1.70;92.60;;;;;;4150889;28;20137;-54
2022/01/07 02:05:41;;;;;;;0.00;0.00;;;1.80;92.40;;;;;;4165093;28;20099;-58
2022/01/07 02:08:04;;;;;;;0.00;0.00;;;1.70;92.40;;;;;;4165076;28;20141;-59
2022/01/07 02:10:38;;;;;;;0.00;0.00;;;1.70;92.50;;;;;;4163697;28;20061;-54
2022/01/07 02:13:10;;;;;;;0.00;0.00;;;1.70;92.70;;;;;;4164059;28;20136;-55
2022/01/07 02:15:46;;;;;;;0.00;0.00;;;1.80;92.60;;;;;;4163819;28;20053;-60
2022/01/07 02:18:09;;;;;;;0.00;0.00;;;1.80;92.50;;;;;;4164103;28;20541;-58
2022/01/07 02:20:31;;;;;;;0.00;0.00;;;1.80;92.50;;;;;;4163782;28;20049;-55
2022/01/07 02:22:55;;;;;;;0.00;0.00;;;1.80;92.50;;;;;;4163987;28;20539;-61
2022/01/07 02:25:20;;;;;;;0.00;0.00;;;1.80;92.50;;;;;;4163704;28;20124;-59
2022/01/07 02:27:44;;;;;;;0.00;0.00;;;1.90;92.50;;;;;;4163711;28;20046;-60
2022/01/07 02:30:11;;;;;;;0.00;0.00;;;1.90;92.40;;;;;;4163855;28;20478;-60
2022/01/07 02:32:33;;;;;;;0.00;0.00;;;1.90;92.30;;;;;;4150374;28;20510;-56
2022/01/07 02:34:56;;;;;;;0.00;0.00;;;2.00;92.20;;;;;;4177367;28;20049;-54
2022/01/07 02:37:18;;;;;;;0.00;0.00;;;2.00;92.20;;;;;;4163467;28;20136;-54
2022/01/07 02:39:41;;;;;;;0.00;0.00;;;2.00;92.10;;;;;;4163676;28;20594;-54
2022/01/07 02:42:04;;;;;;;0.00;0.00;;;2.10;92.20;;;;;;4163179;28;20053;-55
2022/01/07 02:44:28;;;;;;;0.00;0.00;;;2.30;91.70;;;;;;4163524;28;20084;-55
2022/01/07 02:46:51;;;;;;;0.00;0.00;;;2.50;91.50;;;;;;4163670;28;20463;-56
2022/01/07 02:49:16;;;;;;;0.00;0.00;;;2.50;91.40;;;;;;4163345;28;20100;-61
2022/01/07 02:51:39;;;;;;;0.00;0.00;;;2.40;91.40;;;;;;4163088;28;20061;-55
2022/01/07 02:54:01;;;;;;;0.00;0.00;;;2.20;91.50;;;;;;4163253;28;20091;-60
2022/01/07 02:56:24;;;;;;;0.00;0.00;;;2.00;91.80;;;;;;4162719;28;20060;-55
2022/01/07 02:58:46;;;;;;;0.00;0.00;;;1.90;92.10;;;;;;4163367;28;20187;-55
2022/01/07 03:01:08;;;;;;;0.00;0.00;;;1.80;92.20;;;;;;4162899;28;20091;-55
2022/01/07 03:03:31;;;;;;;0.00;0.00;;;1.90;92.30;;;;;;4176856;28;20049;-52
2022/01/07 03:05:54;;;;;;;0.00;0.00;;;1.80;92.00;;;;;;4166177;28;20445;-60
2022/01/07 03:08:16;;;;;;;0.00;0.00;;;1.80;92.20;;;;;;4178745;28;20048;-56
2022/01/07 03:10:39;;;;;;;0.00;0.00;;;1.80;92.20;;;;;;4179139;28;20571;-55
2022/01/07 03:13:03;;;;;;;0.00;0.00;;;1.70;92.10;;;;;;4193223;28;20560;-58
2022/01/07 03:15:26;;;;;;;0.00;0.00;;;1.70;92.20;;;;;;4162991;28;20083;-56
2022/01/07 03:17:49;;;;;;;0.00;0.00;;;1.50;92.20;;;;;;4176660;28;20147;-56
2022/01/07 03:20:18;;;;;;;0.00;0.00;;;1.40;92.30;;;;;;4163125;28;20128;-54
2022/01/07 03:22:43;;;;;;;0.00;0.00;;;1.40;92.50;;;;;;4179294;28;20103;-55
2022/01/07 03:25:06;;;;;;;0.00;0.00;;;1.40;92.50;;;;;;4175157;28;20495;-56
2022/01/07 03:27:29;;;;;;;0.00;0.00;;;1.30;92.60;;;;;;4176462;28;20063;-56
2022/01/07 03:29:51;;;;;;;0.00;0.00;;;1.30;92.40;;;;;;4162763;28;20052;-56
2022/01/07 03:32:13;;;;;;;0.00;0.00;;;1.30;92.40;;;;;;4162350;28;20089;-54
2022/01/07 03:34:36;;;;;;;0.00;0.00;;;1.30;92.40;;;;;;4149105;28;20046;-55
2022/01/07 03:36:58;;;;;;;0.00;0.00;;;1.20;92.40;;;;;;4162542;28;20184;-56
2022/01/07 03:39:21;;;;;;;0.00;0.00;;;1.20;92.60;;;;;;4162685;28;20073;-52
2022/01/07 03:41:44;;;;;;;0.00;0.00;;;1.20;92.50;;;;;;4162480;28;20045;-53
2022/01/07 03:44:07;;;;;;;0.00;0.00;;;1.10;92.60;;;;;;4162531;28;20085;-53
2022/01/07 03:46:29;;;;;;;0.00;0.00;;;1.30;92.60;;;;;;4162475;28;20049;-57
2022/01/07 03:48:51;;;;;;;0.00;0.00;;;1.50;92.50;;;;;;4162728;28;20505;-55
2022/01/07 03:51:14;;;;;;;0.00;0.00;;;1.60;92.00;;;;;;4162436;28;20088;-57
2022/01/07 03:53:36;;;;;;;0.00;0.00;;;1.50;91.80;;;;;;4162609;28;20080;-55
2022/01/07 03:55:58;;;;;;;0.00;0.00;;;1.40;92.10;;;;;;4162738;28;20661;-58
2022/01/07 03:58:21;;;;;;;0.00;0.00;;;1.30;92.30;;;;;;4162628;28;20049;-55
2022/01/07 04:00:43;;;;;;;0.00;0.00;;;1.20;92.30;;;;;;4162289;28;20076;-59
2022/01/07 04:03:13;;;;;;;0.00;0.00;;;1.30;92.30;;;;;;4148765;28;20136;-55
2022/01/07 04:05:35;;;;;;;0.00;0.00;;;1.30;92.10;;;;;;4148770;28;20404;-57
2022/01/07 04:07:58;;;;;;;0.00;0.00;;;1.20;92.10;;;;;;4162477;28;20045;-59
2022/01/07 04:10:20;;;;;;;0.00;0.00;;;1.20;92.20;;;;;;4162516;28;20045;-57
2022/01/07 04:12:43;;;;;;;0.00;0.00;;;1.30;92.20;;;;;;4162134;28;20087;-57
2022/01/07 04:15:09;;;;;;;0.00;0.00;;;1.40;92.10;;;;;;4162431;28;20584;-55
2022/01/07 04:17:31;;;;;;;0.00;0.00;;;1.50;91.90;;;;;;4161984;28;20052;-55
2022/01/07 04:19:53;;;;;;;0.00;0.00;;;1.50;91.80;;;;;;4162217;28;20077;-54
2022/01/07 04:22:16;;;;;;;0.00;0.00;;;1.40;91.80;;;;;;4175886;28;20087;-56
2022/01/07 04:24:38;;;;;;;0.00;0.00;;;1.40;91.70;;;;;;4162214;28;20584;-58
2022/01/07 04:27:00;;;;;;;0.00;0.00;;;1.30;91.70;;;;;;4162214;28;20060;-57
2022/01/07 04:29:23;;;;;;;0.00;0.00;;;1.30;91.80;;;;;;4161925;28;20046;-62
2022/01/07 04:31:45;;;;;;;0.00;0.00;;;1.30;91.90;;;;;;4169755;28;20061;-55
2022/01/07 04:34:08;;;;;;;0.00;0.00;;;1.50;91.50;;;;;;4192308;28;20131;-57
2022/01/07 04:36:31;;;;;;;0.00;0.00;;;1.50;91.40;;;;;;4178243;28;20107;-58
2022/01/07 04:38:53;;;;;;;0.00;0.00;;;1.50;91.40;;;;;;4192505;28;20415;-58
2022/01/07 04:41:16;;;;;;;0.00;0.00;;;1.40;91.30;;;;;;4178063;28;20053;-60
2022/01/07 04:43:38;;;;;;;0.00;0.00;;;1.40;91.40;;;;;;4178606;28;20053;-58
2022/01/07 04:46:04;;;;;;;0.00;0.00;;;1.60;91.20;;;;;;4178551;28;20690;-58
2022/01/07 04:48:26;;;;;;;0.00;0.00;;;1.80;91.00;;;;;;4178577;28;20071;-58
2022/01/07 04:50:49;;;;;;;0.00;0.00;;;1.80;90.70;;;;;;4192265;28;20502;-57
2022/01/07 04:53:11;;;;;;;0.00;0.00;;;1.70;90.70;;;;;;4178464;28;20173;-58
2022/01/07 04:55:38;;;;;;;0.00;0.00;;;1.50;90.80;;;;;;4192302;28;20147;-54
2022/01/07 04:58:00;;;;;;;0.00;0.00;;;1.50;91.00;;;;;;4178495;28;20171;-56
2022/01/07 05:00:24;;;;;;;0.00;0.00;;;1.70;91.00;;;;;;4178580;28;20115;-58
2022/01/07 05:02:48;;;;;;;0.00;0.00;;;1.80;90.80;;;;;;4178516;28;20045;-58
2022/01/07 05:05:10;;;;;;;0.00;0.00;;;1.70;90.70;;;;;;4178714;28;20084;-57
2022/01/07 05:07:36;;;;;;;0.00;0.00;;;1.60;90.70;;;;;;4178720;28;20055;-55
2022/01/07 05:09:58;;;;;;;0.00;0.00;;;1.70;90.80;;;;;;4178523;28;20044;-57
2022/01/07 05:12:21;;;;;;;0.00;0.00;;;1.60;90.60;;;;;;4178338;28;20081;-56
2022/01/07 05:14:43;;;;;;;0.00;0.00;;;1.50;90.80;;;;;;4178387;28;20053;-57
2022/01/07 05:17:05;;;;;;;0.00;0.00;;;1.50;90.90;;;;;;4178548;28;20534;-54
2022/01/07 05:19:28;;;;;;;0.00;0.00;;;1.60;90.90;;;;;;4178587;28;20521;-56
2022/01/07 05:21:50;;;;;;;0.00;0.00;;;1.30;91.00;;;;;;4178395;28;20140;-58
2022/01/07 05:24:12;;;;;;;0.00;0.00;;;1.20;91.30;;;;;;4178693;28;20053;-57
2022/01/07 05:26:35;;;;;;;0.00;0.00;;;1.10;91.50;;;;;;4178321;28;20115;-60
2022/01/07 05:28:58;;;;;;;0.00;0.00;;;1.00;91.70;;;;;;4178504;28;20053;-61
2022/01/07 05:31:23;;;;;;;0.00;0.00;;;1.00;91.90;;;;;;4177969;28;20060;-60
2022/01/07 05:33:45;;;;;;;0.00;0.00;;;1.00;92.00;;;;;;4195158;28;20146;-59
2022/01/07 05:36:07;;;;;;;0.00;0.00;;;1.00;92.00;;;;;;4181257;28;20049;-57
2022/01/07 05:38:30;;;;;;;0.00;0.00;;;1.00;91.90;;;;;;4181103;28;20049;-61
2022/01/07 05:40:52;;;;;;;0.00;0.00;;;1.00;91.90;;;;;;4195050;28;20138;-54
2022/01/07 05:43:15;;;;;;;0.00;0.00;;;1.00;92.00;;;;;;4195049;28;20088;-56
2022/01/07 05:45:37;;;;;;;0.00;0.00;;;1.10;92.00;;;;;;4181310;28;20041;-55
2022/01/07 05:47:59;;;;;;;0.00;0.00;;;1.20;92.00;;;;;;4181058;28;20045;-53
2022/01/07 05:50:22;;;;;;;0.00;0.00;;;1.30;91.90;;;;;;4194903;28;20049;-54
2022/01/07 05:52:44;;;;;;;0.00;0.00;;;1.30;91.70;;;;;;4181133;28;20143;-55
2022/01/07 05:55:07;;;;;;;0.00;0.00;;;1.20;91.60;;;;;;4181111;28;20056;-54
2022/01/07 05:57:30;;;;;;;0.00;0.00;;;1.20;91.50;;;;;;4181094;28;20112;-51
2022/01/07 05:59:52;;;;;;;0.00;0.00;;;1.10;91.30;;;;;;4181167;28;20037;-55
2022/01/07 06:02:15;;;;;;;0.00;0.00;;;1.00;91.30;;;;;;4180528;28;20120;-59
2022/01/07 06:04:42;;;;;;;0.00;0.00;;;0.90;91.40;;;;;;4180743;28;20092;-59
2022/01/07 06:07:04;;;;;;;0.00;0.00;;;1.00;91.20;;;;;;4180988;28;20095;-59
2022/01/07 06:09:27;;;;;;;0.00;0.00;;;1.00;91.30;;;;;;4180924;28;20055;-58
2022/01/07 06:11:49;;;;;;;0.00;0.00;;;1.10;91.10;;;;;;4180719;28;20080;-60
2022/01/07 06:14:11;;;;;;;0.00;0.00;;;1.10;91.10;;;;;;4180847;28;20072;-60
2022/01/07 06:16:37;;;;;;;0.00;0.00;;;1.00;91.20;;;;;;4180687;28;20049;-60
2022/01/07 06:18:59;;;;;;;0.00;0.00;;;1.00;91.30;;;;;;4180828;28;20053;-58
2022/01/07 06:21:22;;;;;;;0.00;0.00;;;0.90;91.50;;;;;;4194483;28;20052;-53
2022/01/07 06:23:44;;;;;;;0.00;0.00;;;0.90;91.40;;;;;;4180844;28;20041;-55
2022/01/07 06:26:06;;;;;;;0.00;0.00;;;0.90;91.40;;;;;;4180681;28;20057;-56
2022/01/07 06:28:29;;;;;;;0.00;0.00;;;0.90;91.20;;;;;;4194334;28;20258;-57
2022/01/07 06:30:52;;;;;;;0.00;0.00;;;0.80;91.20;;;;;;4180204;28;20482;-58
2022/01/07 06:33:14;;;;;;;0.00;0.00;;;0.60;91.30;;;;;;4194576;28;20057;-55
2022/01/07 06:35:37;;;;;;;0.00;0.00;;;0.50;91.60;;;;;;4180259;28;20063;-59
2022/01/07 06:38:00;;;;;;;0.00;0.00;;;0.50;91.70;;;;;;4194145;28;20044;-60
2022/01/07 06:40:22;;;;;;;0.00;0.00;;;0.50;91.80;;;;;;4194119;28;20040;-58
2022/01/07 06:42:44;;;;;;;0.00;0.00;;;0.60;91.70;;;;;;4180282;28;20568;-56
2022/01/07 06:45:07;;;;;;;0.00;0.00;;;0.60;91.80;;;;;;4166470;28;20462;-57
2022/01/07 06:47:30;;;;;;;0.00;0.00;;;0.50;91.90;;;;;;4180212;28;20132;-61
2022/01/07 06:49:53;;;;;;;0.00;0.00;;;0.50;92.10;;;;;;4180319;28;20068;-54
2022/01/07 06:52:15;;;;;;;0.00;0.00;;;0.40;92.20;;;;;;4193639;28;20044;-58
2022/01/07 06:54:38;;;;;;;0.00;0.00;;;0.40;92.40;;;;;;4194147;28;20098;-56
2022/01/07 06:57:00;;;;;;;0.00;0.00;;;0.40;92.50;;;;;;4179884;28;20064;-58
2022/01/07 06:59:22;;;;;;;0.00;0.00;;;0.30;92.50;;;;;;4179985;28;20041;-51
2022/01/07 07:01:47;;;;;;;0.00;0.00;;;0.30;92.60;;;;;;4179721;28;20135;-60
2022/01/07 07:04:10;;;;;;;0.00;0.00;;;0.20;92.70;;;;;;4180048;28;20372;-61
2022/01/07 07:06:34;;;;;;;0.00;0.00;;;0.20;92.70;;;;;;4165929;28;20081;-61
2022/01/07 07:08:57;;;;;;;0.00;0.00;;;0.20;92.60;;;;;;4179736;28;20045;-61
2022/01/07 07:11:19;;;;;;;0.00;0.00;;;0.20;92.50;;;;;;4165828;28;20474;-61
2022/01/07 07:13:42;;;;;;;0.00;0.00;;;0.20;92.40;;;;;;4165951;28;20052;-61
2022/01/07 07:16:05;;;;;;;0.00;0.00;;;0.20;92.40;;;;;;4179873;28;20494;-53
2022/01/07 07:18:27;;;;;;;0.00;0.00;;;0.30;92.30;;;;;;4179708;28;20470;-61
2022/01/07 07:20:49;;;;;;;0.00;0.00;;;0.40;92.20;;;;;;4179580;28;20048;-60
2022/01/07 07:23:13;;;;;;;0.00;0.00;;;0.40;92.00;;;;;;4179496;28;20052;-61
2022/01/07 07:25:35;;;;;;;0.00;0.00;;;0.40;92.10;;;;;;4179666;28;20052;-60
2022/01/07 07:27:58;;;;;;;0.00;0.00;;;0.30;92.00;;;;;;4179753;28;20546;-62
2022/01/07 07:30:20;;;;;;;0.00;0.00;;;0.30;92.10;;;;;;4193378;28;20131;-62
2022/01/07 07:32:42;;;;;;;0.00;0.00;;;0.20;92.20;;;;;;4179546;28;20041;-61
2022/01/07 07:37:37;;;;;;;0.00;0.00;;;0.00;92.40;;;;;;4178932;28;20060;-57
2022/01/07 07:40:00;;;;;;;0.00;0.00;;;0.00;92.50;;;;;;4179448;28;20052;-62
2022/01/07 07:42:23;;;;;;;0.00;0.00;;;0.10;92.50;;;;;;4179274;28;20045;-62
2022/01/07 07:44:50;;;;;;;0.00;0.00;;;0.30;92.40;;;;;;4179332;28;20041;-62
2022/01/07 07:47:13;;;;;;;0.00;0.00;;;0.50;92.10;;;;;;4179360;28;20051;-62
2022/01/07 07:49:36;;;;;;;0.00;0.00;;;0.70;91.90;;;;;;4193299;28;20049;-61
2022/01/07 07:51:59;;;;;;;0.00;0.00;;;0.70;91.80;;;;;;4179086;28;20056;-61
2022/01/07 07:54:21;;;;;;;0.00;0.00;;;0.70;91.60;;;;;;4178984;28;20131;-62
2022/01/07 07:56:44;;;;;;;0.00;0.00;;;0.70;91.40;;;;;;4179118;28;20049;-58
2022/01/07 07:59:06;;;;;;;0.00;0.00;;;0.60;91.30;;;;;;4165306;28;20064;-54
2022/01/07 08:01:28;;;;;;;0.00;0.00;;;0.60;91.10;;;;;;4178898;28;20426;-55
2022/01/07 08:03:51;;;;;;;0.00;0.00;;;0.60;91.40;;;;;;4178987;28;20118;-52
2022/01/07 08:06:14;;;;;;;0.00;0.00;;;0.50;91.20;;;;;;4178914;28;20045;-54
2022/01/07 08:08:37;;;;;;;0.00;0.00;;;0.50;91.30;;;;;;4179141;28;20072;-53
2022/01/07 08:11:01;;;;;;;0.00;0.00;;;0.50;91.10;;;;;;4178865;28;20084;-52
2022/01/07 08:16:02;;;;;;;0.00;0.00;;;0.60;91.20;;;;;;4171001;28;20481;-55
2022/01/07 08:18:34;;;;;;;0.00;0.00;;;0.60;91.10;;;;;;4178375;28;20045;-55
2022/01/07 08:20:59;;;;;;;0.00;0.00;;;0.60;91.10;;;;;;4164774;28;20596;-50
2022/01/07 08:23:22;;;;;;;0.00;0.00;;;0.50;91.30;;;;;;4176457;28;20045;-48
2022/01/07 08:25:45;;;;;;;0.00;0.00;;;0.60;91.40;;;;;;4176424;28;20068;-52
2022/01/07 08:28:09;;;;;;;0.00;0.00;;;0.70;91.30;;;;;;4162346;28;20053;-54
2022/01/07 08:30:59;;;;;;;0.00;0.00;;;0.80;91.40;;;;;;4169278;28;20080;-54
2022/01/07 08:36:01;;;;;;;0.00;0.00;;;1.00;91.10;;;;;;4192790;28;20071;-56
2022/01/07 08:38:24;;;;;;;0.00;0.00;;;1.10;90.90;;;;;;4178462;28;20060;-54
2022/01/07 08:40:47;;;;;;;0.00;0.00;;;1.30;90.80;;;;;;4178227;28;20115;-54
2022/01/07 08:43:09;;;;;;;0.00;0.00;;;1.50;90.30;;;;;;4178392;28;20049;-56
2022/01/07 08:45:31;;;;;;;0.00;0.00;;;1.60;90.00;;;;;;4178159;28;20059;-58
2022/01/07 08:47:55;;;;;;;0.00;0.00;;;1.80;89.30;;;;;;4178616;28;20175;-53
2022/01/07 08:50:17;;;;;;;0.00;0.00;;;1.90;89.10;;;;;;4178531;28;20045;-53
2022/01/07 08:52:39;;;;;;;0.00;0.00;;;1.90;88.70;;;;;;4178829;28;20134;-53
2022/01/07 08:55:02;;;;;;;0.00;0.00;;;2.20;88.90;;;;;;4178540;28;20049;-56
2022/01/07 08:57:25;;;;;;;0.00;0.00;;;2.20;88.60;;;;;;4178168;28;20079;-55
2022/01/07 08:59:48;;;;;;;0.00;0.00;;;2.20;88.20;;;;;;4178368;28;20131;-54
2022/01/07 09:02:10;;;;;;;0.00;0.00;;;1.90;88.60;;;;;;4192224;28;20588;-58
2022/01/07 09:04:33;;;;;;;0.00;0.00;;;1.60;89.30;;;;;;4178466;28;20136;-58
2022/01/07 09:06:56;;;;;;;0.00;0.00;;;1.60;90.10;;;;;;4178857;28;20057;-55
2022/01/07 09:09:18;;;;;;;0.00;0.00;;;1.70;89.70;;;;;;4181838;28;20052;-56
2022/01/07 09:11:40;;;;;;;0.00;0.00;;;1.70;89.70;;;;;;4181506;28;20044;-55
2022/01/07 09:14:03;;;;;;;0.00;0.00;;;1.50;89.70;;;;;;4181418;28;20047;-54
2022/01/07 09:16:26;;;;;;;0.00;0.00;;;1.70;89.80;;;;;;4181458;28;20080;-56
2022/01/07 09:18:49;;;;;;;0.00;0.00;;;1.80;89.30;;;;;;4181272;28;20056;-56
2022/01/07 09:21:11;;;;;;;0.00;0.00;;;2.00;88.80;;;;;;4180391;28;20037;-59
2022/01/07 09:23:34;;;;;;;0.00;0.00;;;2.20;87.90;;;;;;4175885;28;20067;-59
2022/01/07 09:25:56;;;;;;;0.00;0.00;;;2.20;86.80;;;;;;4181482;28;20068;-56
2022/01/07 09:28:19;;;;;;;0.00;0.00;;;2.20;86.70;;;;;;4181416;28;20057;-55
2022/01/07 09:30:43;;;;;;;0.00;0.00;;;2.20;85.50;;;;;;4164587;28;20131;-56
2022/01/07 09:33:06;;;;;;;0.00;0.00;;;2.20;85.00;;;;;;4151271;28;20053;-56
2022/01/07 09:35:28;;;;;;;0.00;0.00;;;2.00;84.40;;;;;;4164912;28;20140;-56
2022/01/07 09:37:51;;;;;;;0.00;0.00;;;1.90;85.20;;;;;;4166949;28;20132;-56
2022/01/07 09:40:13;;;;;;;0.00;0.00;;;2.00;85.60;;;;;;4181435;28;20115;-56
2022/01/07 09:42:36;;;;;;;0.00;0.00;;;2.20;85.40;;;;;;4180779;28;20049;-55
2022/01/07 09:44:59;;;;;;;0.00;0.00;;;2.70;85.20;;;;;;4181268;28;20067;-56
2022/01/07 09:47:23;;;;;;;0.00;0.00;;;3.30;84.10;;;;;;4194128;28;20044;-58
2022/01/07 09:49:46;;;;;;;0.00;0.00;;;3.70;82.60;;;;;;4193055;28;20095;-57
2022/01/07 09:52:09;;;;;;;0.00;0.00;;;4.00;81.00;;;;;;4193164;28;20467;-56
2022/01/07 09:54:35;;;;;;;0.00;0.00;;;4.20;80.60;;;;;;4180863;28;20411;-59
2022/01/07 09:56:57;;;;;;;0.00;0.00;;;4.40;80.00;;;;;;4180855;28;20508;-58
2022/01/07 09:59:20;;;;;;;0.00;0.00;;;4.80;79.30;;;;;;4180741;28;20493;-58
2022/01/07 10:02:06;;;;;;;0.00;0.00;;;4.90;76.70;;;;;;4180452;28;20047;-57
2022/01/07 10:04:36;;;;;;;0.00;0.00;;;5.40;76.80;;;;;;4180701;28;20049;-58
2022/01/07 10:07:21;;;;;;;0.00;0.00;;;5.50;75.30;;;;;;4166990;28;20103;-59
2022/01/07 10:10:06;;;;;;;0.00;0.00;;;6.00;73.10;;;;;;4180982;28;20601;-59
2022/01/07 10:12:48;;;;;;;0.00;0.00;;;6.20;73.40;;;;;;4180638;28;20096;-57
2022/01/07 10:15:15;;;;;;;0.00;0.00;;;6.50;72.00;;;;;;4180824;28;20045;-58
2022/01/07 10:17:38;;;;;;;0.00;0.00;;;6.90;70.90;;;;;;4179931;28;20053;-58
2022/01/07 10:20:01;;;;;;;0.00;0.00;;;7.20;70.30;;;;;;4194589;28;20040;-59
2022/01/07 10:22:23;;;;;;;0.00;0.00;;;6.80;67.80;;;;;;4166344;28;20060;-56
2022/01/07 10:24:56;;;;;;;0.00;0.00;;;6.50;69.00;;;;;;4180449;28;20041;-57
2022/01/07 10:27:18;;;;;;;0.00;0.00;;;6.70;68.30;;;;;;4180450;28;20134;-59
2022/01/07 10:29:42;;;;;;;0.00;0.00;;;7.00;67.60;;;;;;4180714;28;20063;-58
2022/01/07 10:32:24;;;;;;;0.00;0.00;;;7.30;67.50;;;;;;4166984;28;20073;-59
2022/01/07 10:35:15;;;;;;;0.00;0.00;;;8.00;63.40;;;;;;4177737;28;20113;-59
2022/01/07 10:37:45;;;;;;;0.00;0.00;;;7.90;62.80;;;;;;4163623;28;20136;-58
2022/01/07 10:40:29;;;;;;;0.00;0.00;;;8.40;63.20;;;;;;4177777;28;20053;-59
2022/01/07 10:43:12;;;;;;;0.00;0.00;;;8.50;59.80;;;;;;4163744;28;20073;-58
2022/01/07 10:45:35;;;;;;;0.00;0.00;;;8.90;59.60;;;;;;4187676;28;20555;-58
2022/01/07 10:47:58;;;;;;;0.00;0.00;;;8.70;59.10;;;;;;4172580;28;20077;-58
2022/01/07 10:50:24;;;;;;;0.00;0.00;;;8.10;59.70;;;;;;4180455;28;20060;-58
2022/01/07 10:52:47;;;;;;;0.00;0.00;;;8.10;59.50;;;;;;4194063;28;20091;-59
2022/01/07 10:55:12;;;;;;;0.00;0.00;;;7.80;59.70;;;;;;4179799;28;20048;-58
2022/01/07 10:57:45;;;;;;;0.00;0.00;;;7.00;60.10;;;;;;4179168;28;20800;-58
2022/01/07 11:00:10;;;;;;;0.00;0.00;;;6.40;62.10;;;;;;4194052;28;20080;-58
2022/01/07 11:02:34;;;;;;;0.00;0.00;;;6.10;62.10;;;;;;4179814;28;20153;-58
2022/01/07 11:04:57;;;;;;;0.00;0.00;;;5.90;62.50;;;;;;4179947;28;20657;-58
2022/01/07 11:07:19;;;;;;;0.00;0.00;;;5.50;63.30;;;;;;4179613;28;20446;-56
2022/01/07 11:09:43;;;;;;;0.00;0.00;;;5.20;64.40;;;;;;4179664;28;20080;-58
2022/01/07 11:12:06;;;;;;;0.00;0.00;;;4.70;65.40;;;;;;4165876;28;20502;-57
2022/01/07 11:14:31;;;;;;;0.00;0.00;;;4.50;66.50;;;;;;4162989;28;20058;-56
2022/01/07 11:16:57;;;;;;;0.00;0.00;;;4.00;67.80;;;;;;4193315;28;20467;-58
2022/01/07 11:19:24;;;;;;;0.00;0.00;;;3.80;69.30;;;;;;4179480;28;20088;-58
2022/01/07 11:21:51;;;;;;;0.00;0.00;;;4.00;69.90;;;;;;4179220;28;20051;-58
2022/01/07 11:24:34;;;;;;;0.00;0.00;;;4.00;70.40;;;;;;4179361;28;20088;-58
2022/01/07 11:27:02;;;;;;;0.00;0.00;;;4.10;69.80;;;;;;4193341;28;20108;-58
2022/01/07 11:29:28;;;;;;;0.00;0.00;;;3.80;70.00;;;;;;4178019;28;20079;-56
2022/01/07 11:31:52;;;;;;;0.00;0.00;;;3.60;71.00;;;;;;4192452;28;20106;-56
2022/01/07 11:34:24;;;;;;;0.00;0.00;;;3.50;71.40;;;;;;4178421;28;20045;-58
2022/01/07 11:36:46;;;;;;;0.00;0.00;;;3.30;71.50;;;;;;4178363;28;20045;-56
2022/01/07 11:39:09;;;;;;;0.00;0.00;;;3.40;71.90;;;;;;4179097;28;20053;-59
2022/01/07 11:41:45;;;;;;;0.00;0.00;;;3.40;71.50;;;;;;4179161;28;20049;-59
2022/01/07 11:44:15;;;;;;;0.00;0.00;;;3.40;71.10;;;;;;4165266;28;20144;-59
2022/01/07 11:46:37;;;;;;;0.00;0.00;;;3.30;71.00;;;;;;4179077;28;20457;-58
2022/01/07 11:49:02;;;;;;;0.00;0.00;;;3.20;70.90;;;;;;4179081;28;20080;-58
2022/01/07 11:51:35;;;;;;;0.00;0.00;;;3.20;70.80;;;;;;4191493;28;20057;-58
2022/01/07 11:54:03;;;;;;;0.00;0.00;;;3.40;70.90;;;;;;4179076;28;20045;-57
2022/01/07 11:56:27;;;;;;;0.00;0.00;;;3.40;70.80;;;;;;4179074;28;20110;-59
2022/01/07 11:58:56;;;;;;;0.00;0.00;;;3.50;70.70;;;;;;4178043;28;20151;-58
2022/01/07 12:01:24;;;;;;;0.00;0.00;;;3.50;70.80;;;;;;4191888;28;20414;-59
2022/01/07 12:03:49;;;;;;;0.00;0.00;;;3.50;70.90;;;;;;4177690;28;20079;-58
2022/01/07 12:06:24;;;;;;;0.00;0.00;;;3.50;70.90;;;;;;4165611;28;20055;-60
2022/01/07 12:09:25;;;;;;;0.00;0.00;;;3.60;70.90;;;;;;4193066;28;20114;-58
2022/01/07 12:11:52;;;;;;;0.00;0.00;;;3.70;71.20;;;;;;4166514;28;20060;-59
2022/01/07 12:14:20;;;;;;;0.00;0.00;;;3.70;71.00;;;;;;4178837;28;20099;-59
2022/01/07 12:16:51;;;;;;;0.00;0.00;;;3.80;70.90;;;;;;4178849;28;20446;-58
2022/01/07 12:19:17;;;;;;;0.00;0.00;;;3.90;70.80;;;;;;4191781;28;20139;-58
2022/01/07 12:21:40;;;;;;;0.00;0.00;;;3.90;71.20;;;;;;4178071;28;20052;-58
2022/01/07 12:24:10;;;;;;;0.00;0.00;;;4.00;70.60;;;;;;4176894;28;20076;-58
2022/01/07 12:26:33;;;;;;;0.00;0.00;;;4.20;70.70;;;;;;4164628;28;20061;-60
2022/01/07 12:28:55;;;;;;;0.00;0.00;;;4.40;70.30;;;;;;4162249;28;20088;-59
2022/01/07 12:31:17;;;;;;;0.00;0.00;;;4.60;69.90;;;;;;4164024;28;20053;-59
2022/01/07 12:33:50;;;;;;;0.00;0.00;;;4.60;69.20;;;;;;4178980;28;20106;-59
2022/01/07 12:36:13;;;;;;;0.00;0.00;;;4.70;69.40;;;;;;4178954;28;20052;-60
2022/01/07 12:38:39;;;;;;;0.00;0.00;;;4.80;69.30;;;;;;4165402;28;20053;-60
2022/01/07 12:41:02;;;;;;;0.00;0.00;;;4.70;69.40;;;;;;4179254;28;20045;-59
2022/01/07 12:43:31;;;;;;;0.00;0.00;;;4.80;69.10;;;;;;4182336;28;20045;-59
2022/01/07 12:46:06;;;;;;;0.00;0.00;;;4.90;68.30;;;;;;4182328;28;20059;-59
2022/01/07 12:48:34;;;;;;;0.00;0.00;;;4.90;68.00;;;;;;4182209;28;20522;-60
2022/01/07 12:51:01;;;;;;;0.00;0.00;;;4.70;68.80;;;;;;4181835;28;20159;-58